Time;durP1;ratioP1;P1;durP2;ratioP2;P2;SDS_P1;SDS_P2;PMS_P1;PMS_P2;Temp;Humidity;BMP_temperature;BMP_pressure;BME280_temperature;BME280_humidity;BME280_pressure;Samples;Min_cycle;Max_cycle;Signal;HPM_P1;HPM_P2
2023/09/06 00:00:33;;;;;;;172.77;162.40;;;26.20;99.90;;;;;;5013561;28;20028;-76
2023/09/06 00:02:59;;;;;;;165.43;155.88;;;26.20;99.90;;;;;;5013943;28;20030;-76
2023/09/06 00:05:26;;;;;;;145.55;136.93;;;26.10;99.90;;;;;;5013960;28;20486;-76
2023/09/06 00:07:52;;;;;;;167.82;158.05;;;26.00;99.90;;;;;;5014289;28;20049;-75
2023/09/06 00:10:18;;;;;;;259.27;244.07;;;26.00;99.90;;;;;;5013831;28;20415;-75
2023/09/06 00:12:45;;;;;;;234.25;221.18;;;26.00;99.90;;;;;;5014353;28;20026;-76
2023/09/06 00:15:12;;;;;;;213.27;200.70;;;26.00;99.90;;;;;;5013382;28;20029;-75
2023/09/06 00:17:38;;;;;;;303.42;286.40;;;26.00;99.90;;;;;;5013782;28;20037;-75
2023/09/06 00:22:59;;;;;;;218.38;206.20;;;26.00;99.90;;;;;;5013948;28;20049;-75
2023/09/06 00:25:26;;;;;;;181.07;169.88;;;25.90;99.90;;;;;;5012397;28;20375;-76
2023/09/06 00:27:54;;;;;;;176.73;166.23;;;25.80;99.90;;;;;;5012539;28;20038;-76
2023/09/06 00:30:20;;;;;;;162.18;152.27;;;25.90;99.90;;;;;;5011701;28;20033;-76
2023/09/06 00:32:47;;;;;;;168.57;158.95;;;26.00;99.90;;;;;;5013407;28;20038;-78
2023/09/06 00:35:16;;;;;;;218.77;206.07;;;26.00;99.90;;;;;;5012212;28;20021;-76
2023/09/06 00:37:45;;;;;;;174.70;164.50;;;25.90;99.90;;;;;;5012462;28;20029;-75
2023/09/06 00:40:14;;;;;;;174.18;164.48;;;25.90;99.90;;;;;;5012344;28;20034;-76
2023/09/06 00:42:40;;;;;;;181.82;171.15;;;25.80;99.90;;;;;;5013558;28;20038;-76
2023/09/06 00:45:06;;;;;;;184.45;173.95;;;25.80;99.90;;;;;;5013236;28;20360;-75
2023/09/06 00:47:33;;;;;;;177.20;167.02;;;25.80;99.90;;;;;;5012843;28;20041;-75
2023/09/06 00:49:59;;;;;;;209.48;198.15;;;25.70;99.90;;;;;;5012106;28;20026;-76
2023/09/06 00:52:25;;;;;;;203.95;192.52;;;25.60;99.90;;;;;;5011815;28;20492;-76
2023/09/06 00:54:51;;;;;;;204.02;192.63;;;25.60;99.90;;;;;;5013224;28;20057;-76
2023/09/06 00:57:17;;;;;;;197.32;186.02;;;25.50;99.90;;;;;;5012805;28;20033;-76
2023/09/06 00:59:43;;;;;;;217.15;204.80;;;25.50;99.90;;;;;;5011849;28;20080;-76
2023/09/06 01:02:09;;;;;;;163.85;154.70;;;25.60;99.90;;;;;;5010836;28;20045;-75
2023/09/06 01:04:35;;;;;;;217.30;205.00;;;25.60;99.90;;;;;;5012166;28;20034;-76
2023/09/06 01:07:02;;;;;;;220.93;208.30;;;25.60;99.90;;;;;;5011581;28;20040;-75
2023/09/06 01:09:29;;;;;;;147.35;138.50;;;25.50;99.90;;;;;;5012016;28;20026;-75
2023/09/06 01:11:56;;;;;;;170.63;160.43;;;25.50;99.90;;;;;;5011267;28;20042;-76
2023/09/06 01:14:22;;;;;;;197.95;186.68;;;25.50;99.90;;;;;;5013438;28;20467;-75
2023/09/06 01:16:49;;;;;;;189.73;179.07;;;25.40;99.90;;;;;;5011979;28;20046;-75
2023/09/06 01:19:16;;;;;;;181.43;171.20;;;25.40;99.90;;;;;;5011766;28;20029;-75
2023/09/06 01:21:49;;;;;;;163.25;153.98;;;25.30;99.90;;;;;;5011493;28;20041;-75
2023/09/06 01:24:16;;;;;;;204.88;193.30;;;25.30;99.90;;;;;;5011711;28;20037;-75
2023/09/06 01:26:42;;;;;;;161.60;152.43;;;25.20;99.90;;;;;;5011396;28;20060;-76
2023/09/06 01:29:08;;;;;;;186.23;175.88;;;25.10;99.90;;;;;;5011705;28;20471;-75
2023/09/06 01:31:34;;;;;;;204.95;193.98;;;25.00;99.90;;;;;;5010249;28;20505;-75
2023/09/06 01:34:00;;;;;;;240.05;226.65;;;25.00;99.90;;;;;;5011629;28;20041;-75
2023/09/06 01:36:28;;;;;;;190.98;180.48;;;25.00;99.90;;;;;;5012389;28;20352;-76
2023/09/06 01:38:54;;;;;;;394.10;370.23;;;25.00;99.90;;;;;;5011428;28;20017;-75
2023/09/06 01:41:20;;;;;;;218.60;205.85;;;24.90;99.90;;;;;;5012463;28;20406;-76
2023/09/06 01:46:23;;;;;;;171.23;161.57;;;24.90;99.90;;;;;;4652636;28;20064;-76
2023/09/06 01:48:49;;;;;;;183.70;173.15;;;24.90;99.90;;;;;;4992687;28;20482;-76
2023/09/06 01:51:15;;;;;;;275.00;259.98;;;24.80;99.90;;;;;;4992613;28;20030;-76
2023/09/06 01:53:42;;;;;;;297.33;280.17;;;24.80;99.90;;;;;;4992632;28;20046;-76
2023/09/06 01:56:08;;;;;;;215.38;203.90;;;24.80;99.90;;;;;;4992053;28;20463;-75
2023/09/06 01:58:35;;;;;;;211.27;199.10;;;24.70;99.90;;;;;;4988496;28;20031;-75
2023/09/06 02:01:01;;;;;;;195.70;184.73;;;24.70;99.90;;;;;;4978755;28;20069;-76
2023/09/06 02:03:27;;;;;;;205.85;194.73;;;24.80;99.90;;;;;;4987066;28;20043;-76
2023/09/06 02:05:53;;;;;;;265.00;250.57;;;24.90;99.90;;;;;;4977713;28;20034;-75
2023/09/06 02:08:19;;;;;;;219.68;207.70;;;24.80;99.90;;;;;;4991427;28;20053;-76
2023/09/06 02:10:45;;;;;;;401.77;378.63;;;24.80;99.90;;;;;;4988813;28;20034;-76
2023/09/06 02:13:12;;;;;;;361.00;341.90;;;24.70;99.90;;;;;;4995471;28;20026;-75
2023/09/06 02:15:38;;;;;;;369.90;349.00;;;24.70;99.90;;;;;;4994101;28;20038;-75
2023/09/06 02:18:05;;;;;;;334.58;316.25;;;24.60;99.90;;;;;;4994386;28;20050;-75
2023/09/06 02:20:31;;;;;;;349.30;330.05;;;24.60;99.90;;;;;;5009264;28;20019;-75
2023/09/06 02:22:57;;;;;;;333.30;314.63;;;24.60;99.90;;;;;;5009875;28;20406;-76
2023/09/06 02:25:33;;;;;;;260.70;246.93;;;24.60;99.90;;;;;;4994815;28;20026;-76
2023/09/06 02:28:03;;;;;;;283.98;269.38;;;24.50;99.90;;;;;;5010015;28;20046;-76
2023/09/06 02:30:29;;;;;;;248.82;234.95;;;24.50;99.90;;;;;;5008676;28;20034;-75
2023/09/06 02:32:55;;;;;;;308.25;291.25;;;24.50;99.90;;;;;;4995163;28;20050;-76
2023/09/06 02:35:21;;;;;;;288.50;273.27;;;24.60;99.90;;;;;;4993365;28;20387;-76
2023/09/06 02:37:47;;;;;;;312.67;296.23;;;24.60;99.90;;;;;;4995948;28;20042;-76
2023/09/06 02:40:14;;;;;;;324.13;306.60;;;24.60;99.90;;;;;;4994559;28;20037;-76
2023/09/06 02:42:41;;;;;;;288.23;272.73;;;24.50;99.90;;;;;;4994840;28;20066;-76
2023/09/06 02:45:14;;;;;;;199.50;188.90;;;24.50;99.90;;;;;;5009540;28;20394;-75
2023/09/06 02:47:47;;;;;;;204.68;194.20;;;24.40;99.90;;;;;;4996618;28;20049;-76
2023/09/06 02:50:14;;;;;;;225.40;213.02;;;24.30;99.90;;;;;;4996244;28;20050;-76
2023/09/06 02:52:44;;;;;;;193.98;184.00;;;24.30;99.90;;;;;;5011051;28;20382;-76
2023/09/06 02:55:13;;;;;;;199.47;188.60;;;24.20;99.90;;;;;;4995523;28;20034;-76
2023/09/06 02:57:40;;;;;;;237.98;225.43;;;24.20;99.90;;;;;;5009921;28;20042;-76
2023/09/06 03:00:18;;;;;;;226.75;214.95;;;24.20;99.90;;;;;;4995297;28;20068;-75
2023/09/06 03:02:47;;;;;;;153.38;144.85;;;24.20;99.90;;;;;;5009536;28;20049;-76
2023/09/06 03:05:17;;;;;;;160.02;150.85;;;24.20;99.90;;;;;;4995359;28;20022;-76
2023/09/06 03:07:46;;;;;;;175.10;165.55;;;24.20;99.90;;;;;;4995784;28;20034;-76
2023/09/06 03:10:12;;;;;;;138.05;130.38;;;24.30;99.90;;;;;;4995298;28;20038;-75
2023/09/06 03:12:40;;;;;;;167.15;157.77;;;24.20;99.90;;;;;;4995318;28;20037;-76
2023/09/06 03:15:08;;;;;;;149.13;141.02;;;24.20;99.90;;;;;;4995328;28;20046;-75
2023/09/06 03:17:36;;;;;;;145.52;137.30;;;24.10;99.90;;;;;;4976222;28;20046;-75
2023/09/06 03:20:19;;;;;;;165.38;156.20;;;24.10;99.90;;;;;;4975933;28;20043;-76
2023/09/06 03:22:46;;;;;;;160.25;151.30;;;24.00;99.90;;;;;;4975575;28;20066;-75
2023/09/06 03:25:14;;;;;;;133.63;126.28;;;23.90;99.90;;;;;;4976014;28;20026;-75
2023/09/06 03:27:43;;;;;;;140.82;132.55;;;23.90;99.90;;;;;;4995017;28;20042;-76
2023/09/06 03:30:10;;;;;;;145.82;137.55;;;24.00;99.90;;;;;;5009182;28;20026;-75
2023/09/06 03:32:36;;;;;;;158.73;149.63;;;24.00;99.90;;;;;;4995285;28;20031;-76
2023/09/06 03:35:08;;;;;;;139.20;131.52;;;24.00;99.90;;;;;;4995396;28;20372;-76
2023/09/06 03:37:34;;;;;;;135.93;128.35;;;23.90;99.90;;;;;;4984781;28;20054;-76
2023/09/06 03:40:00;;;;;;;166.68;157.20;;;23.90;99.90;;;;;;4995324;28;20034;-76
2023/09/06 03:42:26;;;;;;;168.80;159.60;;;23.90;99.90;;;;;;4994391;28;20482;-75
2023/09/06 03:44:52;;;;;;;186.02;175.70;;;23.90;99.90;;;;;;4994719;28;20046;-76
2023/09/06 03:47:19;;;;;;;203.43;192.65;;;24.00;99.90;;;;;;4994390;28;20042;-76
2023/09/06 03:49:45;;;;;;;119.20;112.20;;;23.90;99.90;;;;;;4995064;28;20042;-76
2023/09/06 03:52:11;;;;;;;119.82;112.97;;;23.80;99.90;;;;;;4994627;28;20034;-76
2023/09/06 03:54:38;;;;;;;123.05;116.25;;;23.80;99.90;;;;;;5009096;28;20042;-76
2023/09/06 03:57:04;;;;;;;122.75;115.60;;;23.80;99.90;;;;;;4978846;28;20038;-75
2023/09/06 03:59:35;;;;;;;130.32;122.90;;;23.80;99.90;;;;;;4974190;28;20042;-76
2023/09/06 04:02:02;;;;;;;123.75;116.72;;;23.70;99.90;;;;;;4974432;28;20054;-75
2023/09/06 04:04:29;;;;;;;111.88;105.03;;;23.60;99.90;;;;;;4975167;28;20387;-75
2023/09/06 04:06:55;;;;;;;119.80;112.57;;;23.60;99.90;;;;;;4984897;28;20030;-75
2023/09/06 04:09:28;;;;;;;167.63;158.63;;;23.60;99.90;;;;;;4973958;28;20050;-75
2023/09/06 04:11:57;;;;;;;138.98;131.63;;;23.60;99.90;;;;;;4988674;28;20037;-75
2023/09/06 04:14:23;;;;;;;144.07;136.45;;;23.70;99.90;;;;;;4994500;28;20026;-74
2023/09/06 04:16:50;;;;;;;117.25;110.40;;;23.70;99.90;;;;;;4993774;28;20039;-75
2023/09/06 04:19:16;;;;;;;114.93;108.32;;;23.80;99.90;;;;;;5009511;28;20034;-75
2023/09/06 04:21:43;;;;;;;120.25;113.50;;;23.80;99.90;;;;;;4993936;28;20042;-76
2023/09/06 04:24:09;;;;;;;132.35;124.70;;;23.80;99.90;;;;;;4994056;28;20042;-76
2023/09/06 04:26:38;;;;;;;127.97;120.93;;;23.80;99.90;;;;;;4993567;28;20364;-75
2023/09/06 04:29:05;;;;;;;106.00;99.78;;;23.70;99.90;;;;;;4994322;28;20035;-74
2023/09/06 04:31:32;;;;;;;118.82;112.18;;;23.60;99.90;;;;;;4993321;28;20077;-76
2023/09/06 04:33:58;;;;;;;118.82;112.15;;;23.50;99.90;;;;;;4993379;28;20046;-75
2023/09/06 04:36:25;;;;;;;146.77;138.10;;;23.50;99.90;;;;;;4993760;28;20037;-75
2023/09/06 04:38:51;;;;;;;153.10;144.27;;;23.50;99.90;;;;;;4993490;28;20043;-76
2023/09/06 04:41:17;;;;;;;214.25;202.88;;;23.40;99.90;;;;;;4989090;28;20027;-75
2023/09/06 04:43:43;;;;;;;187.55;177.18;;;23.40;99.90;;;;;;4974676;28;20391;-75
2023/09/06 04:46:09;;;;;;;116.65;110.10;;;23.30;99.90;;;;;;4981554;28;20406;-75
2023/09/06 04:48:36;;;;;;;120.75;113.90;;;23.30;99.90;;;;;;4993855;28;20030;-75
2023/09/06 04:51:02;;;;;;;139.95;132.27;;;23.30;99.90;;;;;;4993348;28;20038;-76
2023/09/06 04:53:35;;;;;;;161.90;153.15;;;23.40;99.90;;;;;;5109827;27;20384;-76
2023/09/06 04:56:03;;;;;;;109.65;103.43;;;23.40;99.90;;;;;;5109647;28;20502;-75
2023/09/06 04:58:30;;;;;;;117.32;110.47;;;23.30;99.90;;;;;;5110056;28;20031;-75
2023/09/06 05:00:56;;;;;;;129.93;122.30;;;23.30;99.90;;;;;;5094140;28;20396;-76
2023/09/06 05:03:23;;;;;;;97.38;92.03;;;23.30;99.90;;;;;;5068276;28;20488;-76
2023/09/06 05:05:51;;;;;;;121.68;114.18;;;23.30;99.90;;;;;;5069364;28;20401;-75
2023/09/06 05:08:17;;;;;;;91.68;86.35;;;23.30;99.90;;;;;;5069179;28;20036;-78
2023/09/06 05:10:43;;;;;;;88.72;83.60;;;23.20;99.90;;;;;;5069320;28;20017;-76
2023/09/06 05:13:11;;;;;;;89.25;83.78;;;23.20;99.90;;;;;;5069233;28;20039;-75
2023/09/06 05:15:38;;;;;;;92.28;86.88;;;23.20;99.90;;;;;;5068174;28;20032;-77
2023/09/06 05:18:04;;;;;;;103.97;97.57;;;23.20;99.90;;;;;;5069146;28;20059;-78
2023/09/06 05:20:35;;;;;;;102.35;96.72;;;23.20;99.90;;;;;;5068803;28;20063;-78
2023/09/06 05:23:06;;;;;;;110.32;104.10;;;23.20;99.90;;;;;;5069031;28;20385;-76
2023/09/06 05:25:33;;;;;;;100.90;95.20;;;23.20;99.90;;;;;;5068361;28;20488;-75
2023/09/06 05:28:17;;;;;;;78.13;73.15;;;23.20;99.90;;;;;;5068788;28;20048;-76
2023/09/06 05:30:44;;;;;;;76.40;71.70;;;23.10;99.90;;;;;;5068160;28;20028;-76
2023/09/06 05:33:10;;;;;;;85.07;80.03;;;23.00;99.90;;;;;;5067159;28;20411;-76
2023/09/06 05:35:37;;;;;;;86.18;81.05;;;23.00;99.90;;;;;;5066901;28;20040;-76
2023/09/06 05:38:03;;;;;;;142.38;134.25;;;23.00;99.90;;;;;;5068599;28;20033;-75
2023/09/06 05:40:31;;;;;;;125.43;118.50;;;23.10;99.90;;;;;;5068356;28;20553;-76
2023/09/06 05:42:57;;;;;;;94.47;88.93;;;23.20;99.90;;;;;;5069024;28;20040;-76
2023/09/06 05:45:23;;;;;;;112.65;106.45;;;23.20;99.90;;;;;;5067457;28;20643;-76
2023/09/06 05:47:49;;;;;;;110.65;103.95;;;23.20;99.90;;;;;;5067171;28;20488;-76
2023/09/06 05:50:15;;;;;;;89.43;84.13;;;23.20;99.90;;;;;;5067943;28;20032;-76
2023/09/06 05:52:41;;;;;;;112.43;106.20;;;23.20;99.90;;;;;;5066606;28;20044;-76
2023/09/06 05:55:10;;;;;;;106.85;100.40;;;23.10;99.90;;;;;;5066928;28;20052;-76
2023/09/06 05:57:36;;;;;;;86.35;80.88;;;23.00;99.90;;;;;;5068050;28;20366;-76
2023/09/06 06:00:04;;;;;;;80.35;75.75;;;23.10;99.90;;;;;;5068280;28;20092;-76
2023/09/06 06:02:31;;;;;;;82.30;77.40;;;23.10;99.90;;;;;;5066750;28;20044;-75
2023/09/06 06:04:57;;;;;;;80.28;75.70;;;23.20;99.90;;;;;;5054806;28;20028;-76
2023/09/06 06:07:23;;;;;;;85.95;80.65;;;23.10;99.90;;;;;;5054124;28;20385;-76
2023/09/06 06:09:49;;;;;;;82.93;78.07;;;23.10;99.90;;;;;;5054973;28;20457;-75
2023/09/06 06:12:22;;;;;;;83.22;77.88;;;23.00;99.90;;;;;;5054345;28;20136;-75
2023/09/06 06:14:54;;;;;;;74.93;70.40;;;23.00;99.90;;;;;;5055061;28;20481;-76
2023/09/06 06:17:20;;;;;;;83.03;77.82;;;23.00;99.90;;;;;;5052719;28;20032;-78
2023/09/06 06:19:47;;;;;;;96.13;90.65;;;23.00;99.90;;;;;;5053621;28;20040;-78
2023/09/06 06:22:14;;;;;;;95.05;89.68;;;23.20;99.90;;;;;;5053946;28;20029;-78
2023/09/06 06:24:42;;;;;;;103.88;97.90;;;23.30;99.90;;;;;;5054513;28;20033;-78
2023/09/06 06:27:08;;;;;;;87.68;82.30;;;23.30;99.90;;;;;;5054059;28;20389;-78
2023/09/06 06:29:34;;;;;;;95.97;90.35;;;23.40;99.90;;;;;;5054749;28;20374;-78
2023/09/06 06:32:01;;;;;;;95.68;90.05;;;23.50;99.90;;;;;;5053583;28;20052;-78
2023/09/06 06:34:27;;;;;;;93.43;87.85;;;23.60;99.90;;;;;;5054442;28;20355;-78
2023/09/06 06:36:53;;;;;;;99.32;93.82;;;23.60;99.90;;;;;;5050411;28;20044;-78
2023/09/06 06:39:19;;;;;;;103.90;97.97;;;23.60;99.90;;;;;;5034362;28;20461;-78
2023/09/06 06:41:45;;;;;;;91.38;86.03;;;23.60;99.90;;;;;;5047214;28;20033;-77
2023/09/06 06:44:11;;;;;;;93.40;88.07;;;23.60;99.90;;;;;;5054473;28;20056;-76
2023/09/06 06:46:38;;;;;;;95.03;89.60;;;23.70;99.90;;;;;;5053523;28;20033;-76
2023/09/06 06:49:07;;;;;;;83.95;78.82;;;23.80;99.90;;;;;;5053929;28;20033;-74
2023/09/06 06:51:38;;;;;;;91.32;86.05;;;23.90;99.90;;;;;;5053465;28;20033;-76
2023/09/06 06:54:06;;;;;;;94.25;88.63;;;24.10;99.90;;;;;;5053697;28;20050;-75
2023/09/06 06:56:32;;;;;;;103.47;97.80;;;24.10;99.90;;;;;;5053563;28;20040;-76
2023/09/06 06:58:58;;;;;;;106.88;100.65;;;24.20;99.90;;;;;;5054224;28;20033;-76
2023/09/06 07:01:24;;;;;;;108.63;102.53;;;24.30;99.90;;;;;;5053033;28;20076;-76
2023/09/06 07:03:51;;;;;;;110.28;103.95;;;24.30;99.90;;;;;;5053694;28;20052;-76
2023/09/06 07:06:17;;;;;;;127.88;120.15;;;24.40;99.90;;;;;;5053502;28;20048;-76
2023/09/06 07:08:43;;;;;;;160.48;151.45;;;24.50;99.90;;;;;;5054167;28;20045;-76
2023/09/06 07:11:11;;;;;;;140.70;132.88;;;24.60;99.90;;;;;;5053381;28;20346;-75
2023/09/06 07:13:38;;;;;;;239.82;226.90;;;24.80;99.90;;;;;;5054069;28;20049;-76
2023/09/06 07:16:04;;;;;;;216.00;204.88;;;24.90;99.90;;;;;;5051684;28;20047;-75
2023/09/06 08:15:14;;;;;;;271.92;255.85;;;26.10;99.90;;;;;;5105910;27;20420;-74
2023/09/06 08:17:41;;;;;;;313.60;295.85;;;26.70;99.90;;;;;;5069006;28;20040;-74
2023/09/06 08:20:09;;;;;;;237.38;223.02;;;26.80;99.90;;;;;;5068681;28;20136;-74
2023/09/06 08:22:36;;;;;;;172.30;160.68;;;26.90;99.90;;;;;;5066220;28;20040;-75
2023/09/06 08:25:03;;;;;;;151.32;141.52;;;26.80;99.90;;;;;;5068108;28;20378;-75
2023/09/06 08:27:29;;;;;;;288.35;271.50;;;26.90;99.90;;;;;;5068678;28;20394;-74
2023/09/06 08:29:55;;;;;;;163.82;153.02;;;27.10;99.90;;;;;;5069327;28;20041;-75
2023/09/06 08:32:21;;;;;;;164.35;153.07;;;27.30;99.90;;;;;;5068266;28;20478;-75
2023/09/06 08:34:47;;;;;;;167.15;156.05;;;27.40;99.90;;;;;;5068604;28;20036;-74
2023/09/06 08:37:13;;;;;;;172.48;162.32;;;27.50;99.90;;;;;;5069038;28;20028;-75
2023/09/06 08:39:39;;;;;;;326.67;307.60;;;27.70;99.90;;;;;;5068928;28;20029;-74
2023/09/06 08:42:06;;;;;;;432.58;407.13;;;27.80;99.90;;;;;;5068022;28;20158;-75
2023/09/06 08:44:32;;;;;;;413.08;389.15;;;27.80;99.90;;;;;;5068558;28;20062;-75
2023/09/06 08:47:03;;;;;;;472.42;444.92;;;27.80;99.90;;;;;;5068146;28;20044;-75
2023/09/06 08:49:29;;;;;;;416.50;392.08;;;27.90;99.90;;;;;;5067252;28;20382;-75
2023/09/06 08:51:55;;;;;;;320.13;301.08;;;27.90;99.90;;;;;;5067247;28;20044;-74
2023/09/06 08:54:23;;;;;;;258.52;243.80;;;27.90;99.90;;;;;;5068583;28;20044;-75
2023/09/06 08:56:53;;;;;;;270.83;255.07;;;27.90;99.90;;;;;;5067061;28;20036;-75
2023/09/06 08:59:19;;;;;;;202.40;189.80;;;28.00;99.90;;;;;;5067432;28;20024;-75
2023/09/06 09:01:45;;;;;;;170.10;159.52;;;28.30;99.90;;;;;;5066419;28;20039;-74
2023/09/06 09:04:12;;;;;;;163.57;152.43;;;28.40;99.90;;;;;;5068197;28;20040;-74
2023/09/06 09:06:43;;;;;;;177.05;166.55;;;28.50;99.90;;;;;;5067876;28;20029;-74
2023/09/06 09:09:18;;;;;;;204.05;191.80;;;28.60;99.90;;;;;;5068343;28;20113;-74
2023/09/06 09:11:45;;;;;;;328.90;310.23;;;28.80;99.90;;;;;;5066801;28;20473;-74
2023/09/06 09:14:20;;;;;;;326.02;307.00;;;29.00;99.90;;;;;;5064229;28;20048;-74
2023/09/06 09:16:53;;;;;;;450.48;425.90;;;29.10;99.90;;;;;;5052892;28;20037;-74
2023/09/06 09:19:20;;;;;;;460.08;434.27;;;29.20;99.90;;;;;;5054513;28;20037;-74
2023/09/06 09:21:46;;;;;;;310.08;292.10;;;29.30;99.90;;;;;;5054614;28;20033;-74
2023/09/06 09:24:12;;;;;;;422.75;399.25;;;29.40;99.90;;;;;;5053190;28;20059;-74
2023/09/06 09:26:41;;;;;;;620.13;583.58;;;29.50;99.90;;;;;;5054492;28;20040;-74
2023/09/06 09:29:12;;;;;;;839.10;783.78;;;29.80;99.90;;;;;;5054431;28;20052;-74
2023/09/06 09:31:40;;;;;;;826.97;773.83;;;29.70;99.90;;;;;;5050634;28;20036;-73
2023/09/06 09:34:06;;;;;;;838.13;785.17;;;29.80;99.90;;;;;;5054010;28;20052;-74
2023/09/06 09:36:34;;;;;;;1999.90;999.90;;;29.90;99.90;;;;;;5053114;28;20029;-74
2023/09/06 09:39:13;;;;;;;1999.90;999.90;;;29.90;99.90;;;;;;5054602;28;20052;-74
2023/09/06 09:41:42;;;;;;;780.35;731.80;;;29.90;99.90;;;;;;5053644;28;20081;-74
2023/09/06 09:44:15;;;;;;;753.35;707.03;;;29.90;99.90;;;;;;5054457;28;20025;-74
2023/09/06 09:46:45;;;;;;;836.83;782.38;;;29.80;99.90;;;;;;5051445;28;20041;-74
2023/09/06 09:49:12;;;;;;;845.95;791.83;;;29.80;99.90;;;;;;5054346;28;20025;-74
2023/09/06 09:51:39;;;;;;;756.85;710.33;;;29.80;99.90;;;;;;5053954;28;20036;-74
2023/09/06 09:54:05;;;;;;;794.20;745.20;;;29.90;99.90;;;;;;5052935;28;20557;-74
2023/09/06 09:56:35;;;;;;;804.50;753.72;;;30.00;99.90;;;;;;5052688;28;20120;-74
2023/09/06 09:59:02;;;;;;;831.90;778.20;;;30.10;99.90;;;;;;5053049;28;20029;-73
2023/09/06 10:01:28;;;;;;;814.83;762.97;;;30.20;99.90;;;;;;5051639;28;20040;-74
2023/09/06 10:03:58;;;;;;;842.47;787.58;;;30.20;99.90;;;;;;5052968;28;20474;-74
2023/09/06 10:06:27;;;;;;;823.47;771.90;;;30.30;99.90;;;;;;5053158;28;20052;-74
2023/09/06 10:08:54;;;;;;;761.43;714.27;;;30.30;99.90;;;;;;5034243;28;20037;-76
2023/09/06 10:11:20;;;;;;;708.85;666.33;;;30.30;99.90;;;;;;5025277;28;20041;-76
2023/09/06 10:13:47;;;;;;;687.40;645.55;;;30.40;99.90;;;;;;5052500;28;20045;-76
2023/09/06 10:16:14;;;;;;;760.47;713.72;;;30.50;99.90;;;;;;5051265;28;20040;-76
2023/09/06 10:18:40;;;;;;;799.95;750.42;;;30.60;99.90;;;;;;5053727;28;20036;-77
2023/09/06 10:21:06;;;;;;;804.78;754.53;;;30.60;99.90;;;;;;5053526;28;20041;-77
2023/09/06 10:23:40;;;;;;;733.42;687.83;;;30.80;99.90;;;;;;5052456;28;20029;-77
2023/09/06 10:26:07;;;;;;;796.80;747.67;;;30.80;99.90;;;;;;5050564;28;20037;-77
2023/09/06 10:28:33;;;;;;;1999.90;999.90;;;30.80;99.90;;;;;;5053766;28;20033;-77
2023/09/06 10:31:07;;;;;;;1999.90;999.90;;;30.90;99.90;;;;;;5050121;28;20041;-77
2023/09/06 10:33:36;;;;;;;1697.85;935.45;;;31.00;99.90;;;;;;5052944;28;20049;-77
2023/09/06 10:36:06;;;;;;;1999.90;999.90;;;31.00;99.90;;;;;;5052957;28;20368;-76
2023/09/06 10:38:35;;;;;;;1999.90;999.90;;;31.10;99.90;;;;;;5052248;28;20029;-77
2023/09/06 10:41:07;;;;;;;1999.90;999.90;;;31.10;99.90;;;;;;5052512;28;20037;-76
2023/09/06 10:43:54;;;;;;;1999.90;999.90;;;31.00;99.90;;;;;;5052902;28;20391;-76
2023/09/06 10:46:24;;;;;;;1999.90;999.90;;;31.00;99.90;;;;;;5051907;28;20041;-76
2023/09/06 10:49:12;;;;;;;1999.90;999.90;;;31.00;99.90;;;;;;5053071;28;20033;-77
2023/09/06 10:51:57;;;;;;;1999.90;999.90;;;31.10;99.90;;;;;;5052967;28;20036;-76
2023/09/06 10:54:37;;;;;;;1999.90;999.90;;;31.20;99.90;;;;;;5053228;28;20503;-77
2023/09/06 10:57:05;;;;;;;1999.90;999.90;;;31.30;99.90;;;;;;5052978;28;20529;-77
2023/09/06 10:59:35;;;;;;;1999.90;999.90;;;31.40;99.90;;;;;;5052513;28;20422;-77
2023/09/06 11:02:07;;;;;;;1999.90;999.90;;;31.50;99.90;;;;;;5050972;28;20033;-77
2023/09/06 11:04:33;;;;;;;1999.90;999.90;;;31.50;99.90;;;;;;5053012;28;20017;-77
2023/09/06 11:06:59;;;;;;;1999.90;999.90;;;31.70;99.30;;;;;;5052356;28;20048;-76
2023/09/06 11:09:26;;;;;;;1999.90;999.90;;;31.70;99.00;;;;;;5051688;28;20025;-77
2023/09/06 11:11:52;;;;;;;1999.90;999.90;;;31.70;99.60;;;;;;5052007;28;20045;-77
2023/09/06 11:14:19;;;;;;;1999.90;999.90;;;31.70;98.90;;;;;;5051604;28;20049;-76
2023/09/06 11:16:46;;;;;;;1999.90;999.90;;;31.70;99.20;;;;;;5051881;28;20043;-76
2023/09/06 11:19:12;;;;;;;1999.90;999.90;;;31.80;99.60;;;;;;5051185;28;20037;-77
2023/09/06 11:21:38;;;;;;;1999.90;999.90;;;31.80;98.60;;;;;;5052113;28;20028;-77
2023/09/06 11:24:05;;;;;;;1999.90;999.90;;;31.90;99.30;;;;;;5051333;28;20032;-76
2023/09/06 11:26:37;;;;;;;1999.90;999.90;;;31.90;98.10;;;;;;5052148;28;20036;-76
2023/09/06 11:29:03;;;;;;;1999.90;999.90;;;31.90;98.60;;;;;;5051778;28;20064;-76
2023/09/06 11:31:33;;;;;;;1999.90;999.90;;;32.00;98.60;;;;;;5051466;28;20056;-76
2023/09/06 11:34:03;;;;;;;1999.90;999.90;;;31.80;98.80;;;;;;5052253;28;20060;-76
2023/09/06 11:36:32;;;;;;;;;;;31.90;99.40;;;;;;5034233;28;20037;-77
2023/09/06 11:38:58;;;;;;;1999.90;999.90;;;32.00;99.00;;;;;;5049830;28;19904;-77
2023/09/06 11:41:24;;;;;;;1999.90;999.90;;;32.10;98.40;;;;;;5051794;28;20049;-76
2023/09/06 11:43:56;;;;;;;1999.90;999.90;;;32.20;98.50;;;;;;5050787;28;20025;-76
2023/09/06 11:46:24;;;;;;;1999.90;999.90;;;32.10;98.10;;;;;;5048843;28;20036;-77
2023/09/06 11:48:53;;;;;;;1999.90;999.90;;;32.00;98.90;;;;;;5050108;28;20394;-77
2023/09/06 11:51:22;;;;;;;1999.90;999.90;;;32.00;98.60;;;;;;5051834;28;20501;-76
2023/09/06 11:53:54;;;;;;;1999.90;999.90;;;32.10;98.00;;;;;;5052114;28;20052;-77
2023/09/06 11:56:31;;;;;;;1999.90;999.90;;;32.10;97.40;;;;;;5049753;28;20045;-76
2023/09/06 11:58:59;;;;;;;1999.90;999.90;;;32.20;97.80;;;;;;5049905;28;20049;-77
2023/09/06 12:01:26;;;;;;;1999.90;999.90;;;32.20;97.50;;;;;;5050130;28;20037;-76
2023/09/06 12:04:01;;;;;;;1999.90;999.90;;;32.40;97.00;;;;;;5052061;28;20037;-77
2023/09/06 12:06:27;;;;;;;1999.90;999.90;;;32.30;97.10;;;;;;5051492;28;20029;-77
2023/09/06 12:08:53;;;;;;;1999.90;999.90;;;32.40;97.50;;;;;;5030913;28;20034;-77
2023/09/06 12:11:21;;;;;;;1999.90;999.90;;;32.40;97.50;;;;;;5039881;28;20029;-76
2023/09/06 12:13:48;;;;;;;1999.90;999.90;;;32.50;97.20;;;;;;5049435;28;20048;-76
2023/09/06 12:16:16;;;;;;;1999.90;999.90;;;32.50;96.50;;;;;;5050437;28;20037;-76
2023/09/06 12:18:42;;;;;;;1999.90;999.90;;;32.40;96.50;;;;;;5051684;28;20052;-77
2023/09/06 12:21:08;;;;;;;1999.90;999.90;;;32.40;96.80;;;;;;5051446;28;20459;-77
2023/09/06 12:23:35;;;;;;;1999.90;999.90;;;32.40;96.80;;;;;;5051860;28;20034;-76
2023/09/06 12:26:01;;;;;;;1999.90;999.90;;;32.40;97.00;;;;;;5050998;28;20033;-76
2023/09/06 12:28:28;;;;;;;1999.90;999.90;;;32.40;97.20;;;;;;5050723;28;20021;-76
2023/09/06 12:30:58;;;;;;;1999.90;999.90;;;32.40;97.10;;;;;;5051021;28;20041;-77
2023/09/06 12:33:24;;;;;;;1999.90;999.90;;;32.50;96.80;;;;;;5049838;28;20033;-76
2023/09/06 12:35:58;;;;;;;1999.90;999.90;;;32.50;96.40;;;;;;5051269;28;20037;-77
2023/09/06 12:38:25;;;;;;;1999.90;999.90;;;32.50;96.50;;;;;;5051099;28;20041;-77
2023/09/06 12:40:51;;;;;;;1999.90;999.90;;;32.70;96.50;;;;;;5051074;28;20040;-76
2023/09/06 12:43:18;;;;;;;1999.90;999.90;;;32.70;96.50;;;;;;5051723;28;20036;-76
2023/09/06 12:45:47;;;;;;;1999.90;999.90;;;32.80;96.30;;;;;;5050710;28;20491;-76
2023/09/06 12:48:14;;;;;;;1999.90;999.90;;;32.80;95.70;;;;;;5051334;28;20041;-76
2023/09/06 12:50:40;;;;;;;1999.90;999.90;;;32.70;95.90;;;;;;5053516;28;20041;-76
2023/09/06 12:53:07;;;;;;;1999.90;999.90;;;32.80;95.20;;;;;;5055475;28;20021;-77
2023/09/06 12:55:34;;;;;;;1999.90;999.90;;;32.90;95.70;;;;;;5054051;28;20041;-76
2023/09/06 12:58:00;;;;;;;1999.90;999.90;;;32.80;95.40;;;;;;5055167;28;20044;-77
2023/09/06 13:00:26;;;;;;;1999.90;999.90;;;32.80;95.50;;;;;;5054559;28;20510;-77
2023/09/06 13:02:52;;;;;;;1999.90;999.90;;;32.90;95.40;;;;;;5054036;28;20024;-77
2023/09/06 13:05:20;;;;;;;1999.90;999.90;;;33.00;95.40;;;;;;5054731;28;20052;-76
2023/09/06 13:07:46;;;;;;;1999.90;999.90;;;33.00;95.30;;;;;;5054938;28;20056;-77
2023/09/06 13:10:12;;;;;;;1999.90;999.90;;;32.90;95.20;;;;;;5052781;28;20037;-76
2023/09/06 13:12:40;;;;;;;1999.90;999.90;;;32.80;95.50;;;;;;5053683;28;20044;-76